createdAt,value
2024-01-21T00:00:45.050Z,100192.50
2024-01-21T00:03:30.851Z,100194.06
2024-01-21T00:06:16.116Z,100187.72
2024-01-21T00:09:01.570Z,100188.50
2024-01-21T00:11:46.985Z,100182.53
2024-01-21T00:14:32.354Z,100175.81
2024-01-21T00:17:18.527Z,100176.22
2024-01-21T00:20:04.698Z,100167.88
2024-01-21T00:22:50.160Z,100168.66
2024-01-21T00:25:36.226Z,100157.97
2024-01-21T00:28:21.641Z,100161.53
2024-01-21T00:31:07.057Z,100159.94
2024-01-21T00:33:52.417Z,100161.91
2024-01-21T00:36:38.116Z,100161.53
2024-01-21T00:39:23.748Z,100156.75
2024-01-21T00:42:09.498Z,100162.31
2024-01-21T00:44:54.801Z,100161.91
2024-01-21T00:47:42.520Z,100163.13
2024-01-21T00:50:28.844Z,100163.91
2024-01-21T00:53:15.334Z,100162.72
2024-01-21T00:56:01.707Z,100162.72
2024-01-21T00:58:47.332Z,100164.28
2024-01-21T01:01:39.197Z,100161.50
2024-01-21T01:04:24.973Z,100157.91
2024-01-21T01:07:10.554Z,100159.88
2024-01-21T01:09:56.131Z,100159.47
2024-01-21T01:12:42.223Z,100156.72
2024-01-21T01:15:27.702Z,100150.75
2024-01-21T01:18:15.397Z,100154.31
2024-01-21T01:21:03.636Z,100154.31
2024-01-21T01:23:48.993Z,100151.53
2024-01-21T01:26:34.910Z,100148.38
2024-01-21T01:29:20.269Z,100152.31
2024-01-21T01:32:06.697Z,100149.94
2024-01-21T01:34:53.676Z,100157.44
2024-01-21T01:37:39.075Z,100141.22
2024-01-21T01:40:24.457Z,100152.31
2024-01-21T01:43:10.759Z,100148.75
2024-01-21T01:45:56.416Z,100136.44
2024-01-21T01:48:42.794Z,100131.72
2024-01-21T01:51:28.573Z,100138.03
2024-01-21T01:54:16.628Z,100133.66
2024-01-21T01:57:04.710Z,100132.50
2024-01-21T01:59:49.847Z,100126.16
2024-01-21T02:02:36.142Z,100126.16
2024-01-21T02:05:21.774Z,100116.66
2024-01-21T02:08:07.264Z,100117.88
2024-01-21T02:10:53.339Z,100109.56
2024-01-21T02:13:38.779Z,100105.19
2024-01-21T02:16:24.446Z,100111.50
2024-01-21T02:19:26.077Z,100115.47
2024-01-21T02:22:11.495Z,100118.25
2024-01-21T02:24:57.046Z,100108.31
2024-01-21T02:27:42.521Z,100118.63
2024-01-21T02:30:27.848Z,100115.44
2024-01-21T02:33:14.479Z,100126.09
2024-01-21T02:36:00.302Z,100131.66
2024-01-21T02:38:45.769Z,100126.91
2024-01-21T02:41:31.698Z,100128.50
2024-01-21T02:44:17.069Z,100122.56
2024-01-21T02:47:02.606Z,100114.25
2024-01-21T02:49:48.045Z,100114.25
2024-01-21T02:52:33.361Z,100118.19
2024-01-21T02:55:18.856Z,100110.66
2024-01-21T02:58:04.340Z,100105.13
2024-01-21T03:00:50.098Z,100099.97
2024-01-21T03:03:35.481Z,100096.41
2024-01-21T03:06:20.921Z,100094.81
2024-01-21T03:09:06.124Z,100082.19
2024-01-21T03:11:51.365Z,100082.19
2024-01-21T03:14:37.155Z,100072.25
2024-01-21T03:17:22.420Z,100069.88
2024-01-21T03:20:08.289Z,100073.47
2024-01-21T03:22:53.577Z,100076.59
2024-01-21T03:25:38.930Z,100075.00
2024-01-21T03:28:24.321Z,100077.78
2024-01-21T03:31:09.630Z,100075.00
2024-01-21T03:33:55.223Z,100070.28
2024-01-21T03:36:41.059Z,100071.44
2024-01-21T03:39:26.361Z,100063.91
2024-01-21T03:42:11.936Z,100056.81
2024-01-21T03:44:57.222Z,100051.28
2024-01-21T03:47:42.721Z,100050.50
2024-01-21T03:50:27.980Z,100055.28
2024-01-21T03:53:13.436Z,100041.78
2024-01-21T03:55:58.867Z,100046.56
2024-01-21T03:58:44.102Z,100044.97
2024-01-21T04:01:29.700Z,100047.38
2024-01-21T04:04:15.859Z,100039.47
2024-01-21T04:07:01.122Z,100038.66
2024-01-21T04:09:46.564Z,100039.06
2024-01-21T04:12:31.897Z,100042.97
2024-01-21T04:15:17.712Z,100041.41
2024-01-21T04:18:03.721Z,100037.03
2024-01-21T04:20:49.312Z,100040.97
2024-01-21T04:23:34.525Z,100043.75
2024-01-21T04:26:20.818Z,100041.00
2024-01-21T04:29:06.483Z,100047.69
2024-01-21T04:31:51.722Z,100050.47
2024-01-21T04:34:37.308Z,100041.75
2024-01-21T04:37:22.889Z,100038.19
2024-01-21T04:40:09.095Z,100034.63
2024-01-21T04:42:54.627Z,100028.69
2024-01-21T04:45:39.865Z,100021.16
2024-01-21T04:48:25.420Z,100018.00
2024-01-21T04:51:12.243Z,100025.91
2024-01-21T04:53:58.199Z,100023.53
2024-01-21T04:56:43.681Z,100022.75
2024-01-21T04:59:28.834Z,100023.16
2024-01-21T05:02:14.303Z,100018.38
2024-01-21T05:05:00.100Z,100011.22
2024-01-21T05:07:45.787Z,100014.78
2024-01-21T05:10:31.216Z,100011.22
2024-01-21T05:13:16.643Z,100008.47
2024-01-21T05:16:02.087Z,100006.88
2024-01-21T05:18:47.503Z,100014.78
2024-01-21T05:21:33.300Z,100008.47
2024-01-21T05:24:19.009Z,100014.00
2024-01-21T05:27:04.693Z,100013.22
2024-01-21T05:29:50.444Z,100010.81
2024-01-21T05:32:36.055Z,100000.53
2024-01-21T05:35:23.875Z,99997.34
2024-01-21T05:38:09.419Z,99998.19
2024-01-21T05:40:54.951Z,99998.56
2024-01-21T05:43:41.412Z,99994.59
2024-01-21T05:46:27.452Z,99993.81
2024-01-21T05:49:13.839Z,99990.25
2024-01-21T05:51:59.133Z,99985.09
2024-01-21T05:54:44.556Z,99996.56
2024-01-21T05:57:29.867Z,100000.50
2024-01-21T06:00:15.836Z,100000.09
2024-01-21T06:03:01.155Z,99990.22
2024-01-21T06:05:46.846Z,99982.28
2024-01-21T06:08:32.225Z,99978.75
2024-01-21T06:11:17.511Z,99988.22
2024-01-21T06:14:03.422Z,99988.22
2024-01-21T06:16:49.088Z,99987.44
2024-01-21T06:19:34.771Z,99989.84
2024-01-21T06:22:20.352Z,99994.19
2024-01-21T06:25:06.124Z,99997.78
2024-01-21T06:27:51.678Z,99985.91
2024-01-21T06:30:37.038Z,99982.75
2024-01-21T06:33:22.928Z,99983.53
2024-01-21T06:36:09.130Z,99977.59
2024-01-21T06:38:54.714Z,99974.03
2024-01-21T06:41:40.688Z,99975.25
2024-01-21T06:44:25.982Z,99968.53
2024-01-21T06:47:11.443Z,99961.84
2024-01-21T06:49:56.731Z,99963.41
2024-01-21T06:52:42.325Z,99963.03
2024-01-21T06:55:28.071Z,99954.75
2024-01-21T06:58:13.519Z,99945.25
2024-01-21T07:00:59.214Z,99946.88
2024-01-21T07:03:46.726Z,99940.53
2024-01-21T07:06:32.209Z,99946.09
2024-01-21T07:09:17.633Z,99937.41
2024-01-21T07:12:05.808Z,99935.41
2024-01-21T07:14:54.570Z,99937.00
2024-01-21T07:17:44.619Z,99933.44
2024-01-21T07:20:30.238Z,99937.00
2024-01-21T07:23:16.268Z,99935.03
2024-01-21T07:26:01.546Z,99942.56
2024-01-21T07:28:47.377Z,99934.63
2024-01-21T07:31:32.918Z,99946.91
2024-01-21T07:34:18.475Z,99939.78
2024-01-21T07:37:03.843Z,99937.03
2024-01-21T07:39:50.743Z,99934.28
2024-01-21T07:42:36.583Z,99937.44
2024-01-21T07:45:22.785Z,99927.16
2024-01-21T07:48:10.300Z,99929.50
2024-01-21T07:50:55.839Z,99927.53
2024-01-21T07:53:41.467Z,99924.78
2024-01-21T07:56:26.941Z,99916.06
2024-01-21T07:59:12.268Z,99910.13
2024-01-21T08:01:57.680Z,99908.91
2024-01-21T08:04:43.646Z,99916.84
2024-01-21T08:07:30.147Z,99915.25
2024-01-21T08:10:15.629Z,99909.72
2024-01-21T08:13:02.186Z,99902.59
2024-01-21T08:15:47.523Z,99902.59
2024-01-21T08:18:35.578Z,99904.19
2024-01-21T08:21:23.200Z,99905.38
2024-01-21T08:24:08.921Z,99900.25
2024-01-21T08:26:54.937Z,99893.09
2024-01-21T08:29:40.738Z,99891.94
2024-01-21T08:32:27.141Z,99882.03
2024-01-21T08:35:12.728Z,99878.84
2024-01-21T08:37:58.137Z,99875.28
2024-01-21T08:40:44.567Z,99877.25
2024-01-21T08:43:32.592Z,99865.81
2024-01-21T08:46:20.531Z,99876.50
2024-01-21T08:49:06.228Z,99865.78
2024-01-21T08:51:52.480Z,99866.19
2024-01-21T08:54:38.124Z,99856.69
2024-01-21T08:57:23.464Z,99862.22
2024-01-21T09:00:12.025Z,99859.06
2024-01-21T09:02:59.240Z,99859.47
2024-01-21T09:05:44.624Z,99851.97
2024-01-21T09:08:29.936Z,99851.56
2024-01-21T09:11:15.389Z,99844.03
2024-01-21T09:14:01.137Z,99856.28
2024-01-21T09:16:46.770Z,99849.59
2024-01-21T09:19:33.796Z,99840.06
2024-01-21T09:22:19.218Z,99851.13
2024-01-21T09:25:04.967Z,99851.13
2024-01-21T09:27:51.517Z,99850.34
2024-01-21T09:30:37.275Z,99847.97
2024-01-21T09:33:23.270Z,99846.78
2024-01-21T09:36:09.326Z,99843.59
2024-01-21T09:38:54.936Z,99847.59
2024-01-21T09:41:50.203Z,99841.22
2024-01-21T09:44:35.898Z,99837.66
2024-01-21T09:47:22.548Z,99835.69
2024-01-21T09:50:09.334Z,99834.91
2024-01-21T09:52:54.757Z,99838.47
2024-01-21T09:55:40.167Z,99830.16
2024-01-21T09:58:27.678Z,99828.19
2024-01-21T10:01:14.084Z,99831.75
2024-01-21T10:03:59.893Z,99830.56
2024-01-21T10:06:46.106Z,99832.94
2024-01-21T10:09:33.612Z,99817.50
2024-01-21T10:12:20.045Z,99809.56
2024-01-21T10:15:06.669Z,99817.88
2024-01-21T10:17:53.110Z,99811.13
2024-01-21T10:20:39.468Z,99817.06
2024-01-21T10:23:24.840Z,99807.97
2024-01-21T10:26:10.298Z,99796.47
2024-01-21T10:28:55.568Z,99800.41
2024-01-21T10:31:41.229Z,99804.38
2024-01-21T10:34:28.536Z,99798.81
2024-01-21T10:37:18.109Z,99786.53
2024-01-21T10:40:04.332Z,99773.44
2024-01-21T10:42:55.095Z,99776.63
2024-01-21T10:45:45.794Z,99750.84
2024-01-21T10:48:34.089Z,99751.22
2024-01-21T10:51:21.597Z,99752.00
2024-01-21T10:54:07.598Z,99756.00
2024-01-21T10:56:53.197Z,99742.91
2024-01-21T10:59:40.329Z,99736.19
2024-01-21T11:02:26.187Z,99722.75
2024-01-21T11:05:11.684Z,99709.28
2024-01-21T11:08:05.416Z,99709.69
2024-01-21T11:11:14.883Z,99702.16
2024-01-21T11:14:00.726Z,99711.69
2024-01-21T11:16:46.305Z,99701.81
2024-01-21T11:19:39.717Z,99705.38
2024-01-21T11:22:27.081Z,99702.22
2024-01-21T11:25:34.077Z,99689.16
2024-01-21T11:28:30.249Z,99696.69
2024-01-21T11:31:15.716Z,99691.16
2024-01-21T11:34:11.907Z,99692.75
2024-01-21T11:36:57.792Z,99695.09
2024-01-21T11:39:44.733Z,99698.25
2024-01-21T11:42:33.751Z,99697.44
2024-01-21T11:45:20.324Z,99704.59
2024-01-21T11:48:11.162Z,99702.25
2024-01-21T11:50:57.985Z,99705.41
2024-01-21T11:53:43.312Z,99702.25
2024-01-21T11:56:28.911Z,99701.47
2024-01-21T11:59:16.232Z,99701.03
2024-01-21T12:02:02.290Z,99695.91
2024-01-21T12:04:48.252Z,99703.84
2024-01-21T12:07:34.133Z,99704.22
2024-01-21T12:10:20.112Z,99709.78
2024-01-21T12:13:07.813Z,99703.06
2024-01-21T12:15:53.647Z,99683.66
2024-01-21T12:18:46.314Z,99667.03
2024-01-21T12:21:32.790Z,99646.81
2024-01-21T12:24:21.100Z,99647.63
2024-01-21T12:27:06.437Z,99636.16
2024-01-21T12:29:53.896Z,99625.47
2024-01-21T12:32:47.023Z,99609.59
2024-01-21T12:35:36.843Z,99613.97
2024-01-21T12:38:22.626Z,99610.00
2024-01-21T12:41:07.897Z,99606.84
2024-01-21T12:43:53.845Z,99610.41
2024-01-21T12:46:39.995Z,99599.72
2024-01-21T12:49:25.406Z,99623.47
2024-01-21T12:52:11.306Z,99615.53
2024-01-21T12:54:56.749Z,99619.88
2024-01-21T12:57:42.079Z,99618.28
2024-01-21T13:00:28.483Z,99626.59
2024-01-21T13:03:14.085Z,99638.81
2024-01-21T13:06:07.729Z,99652.28
2024-01-21T13:08:53.720Z,99657.81
2024-01-21T13:11:39.008Z,99655.81
2024-01-21T13:14:28.179Z,99654.59
2024-01-21T13:17:14.327Z,99649.81
2024-01-21T13:19:59.963Z,99628.41
2024-01-21T13:22:45.544Z,99618.09
2024-01-21T13:25:31.403Z,99609.75
2024-01-21T13:28:22.998Z,99612.47
2024-01-21T13:31:08.966Z,99616.41
2024-01-21T13:33:56.285Z,99625.13
2024-01-21T13:36:41.733Z,99613.19
2024-01-21T13:39:27.446Z,99601.31
2024-01-21T13:42:13.603Z,99600.88
2024-01-21T13:44:59.327Z,99589.38
2024-01-21T13:47:44.622Z,99566.41
2024-01-21T13:50:30.564Z,99569.19
2024-01-21T13:53:16.770Z,99573.94
2024-01-21T13:56:04.118Z,99550.50
2024-01-21T13:58:49.706Z,99544.91
2024-01-21T14:01:36.143Z,99538.13
2024-01-21T14:04:21.887Z,99517.50
2024-01-21T14:07:07.085Z,99521.84
2024-01-21T14:09:52.575Z,99537.38
2024-01-21T14:12:39.454Z,99536.97
2024-01-21T14:15:25.370Z,99503.69
2024-01-21T14:18:11.276Z,99490.19
2024-01-21T14:20:56.594Z,99495.78
2024-01-21T14:23:42.208Z,99497.34
2024-01-21T14:26:35.560Z,99512.44
2024-01-21T14:29:27.876Z,99525.47
2024-01-21T14:32:13.398Z,99560.78
2024-01-21T14:34:59.562Z,99576.59
2024-01-21T14:37:45.145Z,99597.25
2024-01-21T14:40:31.420Z,99611.56
2024-01-21T14:43:17.034Z,99617.09
2024-01-21T14:46:03.067Z,99635.72
2024-01-21T14:48:49.204Z,99656.72
2024-01-21T14:51:35.183Z,99660.22
2024-01-21T14:54:21.124Z,99636.84
2024-01-21T14:57:06.502Z,99643.97
2024-01-21T14:59:52.512Z,99647.94
2024-01-21T15:02:37.858Z,99655.13
2024-01-21T15:05:23.706Z,99662.25
2024-01-21T15:08:09.194Z,99669.34
2024-01-21T15:10:54.624Z,99676.50
2024-01-21T15:13:44.611Z,99674.50
2024-01-21T15:16:30.429Z,99673.34
2024-01-21T15:19:15.956Z,99677.75
2024-01-21T15:22:01.853Z,99691.59
2024-01-21T15:24:47.688Z,99696.31
2024-01-21T15:27:33.045Z,99700.75
2024-01-21T15:30:18.795Z,99696.81
2024-01-21T15:33:05.235Z,99717.00
2024-01-21T15:35:50.827Z,99706.31
2024-01-21T15:38:36.245Z,99712.63
2024-01-21T15:41:21.825Z,99707.03
2024-01-21T15:44:07.590Z,99712.56
2024-01-21T15:46:53.042Z,99723.22
2024-01-21T15:49:39.561Z,99712.13
2024-01-21T15:52:24.998Z,99727.22
2024-01-21T15:55:14.765Z,99724.06
2024-01-21T15:58:00.449Z,99722.47
2024-01-21T16:00:48.342Z,99727.97
2024-01-21T16:03:34.316Z,99728.31
2024-01-21T16:06:19.787Z,99734.66
2024-01-21T16:09:06.112Z,99718.81
2024-01-21T16:11:52.376Z,99715.22
2024-01-21T16:14:37.922Z,99713.63
2024-01-21T16:17:24.027Z,99716.78
2024-01-21T16:20:10.125Z,99709.63
2024-01-21T16:22:57.976Z,99703.75
2024-01-21T16:25:44.338Z,99699.38
2024-01-21T16:28:30.055Z,99693.44
2024-01-21T16:31:15.781Z,99683.09
2024-01-21T16:34:01.497Z,99664.44
2024-01-21T16:36:47.425Z,99651.78
2024-01-21T16:39:32.697Z,99653.34
2024-01-21T16:42:18.248Z,99650.19
2024-01-21T16:45:04.954Z,99654.97
2024-01-21T16:47:51.030Z,99652.56
2024-01-21T16:50:36.902Z,99664.09
2024-01-21T16:53:32.222Z,99673.22
2024-01-21T16:56:17.612Z,99668.09
2024-01-21T16:59:03.176Z,99671.69
2024-01-21T17:01:57.753Z,99665.38
2024-01-21T17:04:43.736Z,99655.13
2024-01-21T17:07:29.696Z,99657.91
2024-01-21T17:10:26.001Z,99657.53
2024-01-21T17:13:12.216Z,99653.59
2024-01-21T17:15:58.193Z,99651.25
2024-01-21T17:18:51.276Z,99644.13
2024-01-21T17:21:37.057Z,99643.75
2024-01-21T17:24:22.679Z,99638.63
2024-01-21T17:27:08.309Z,99633.50
2024-01-21T17:29:53.796Z,99636.28
2024-01-21T17:32:39.413Z,99640.66
2024-01-21T17:35:26.889Z,99643.44
2024-01-21T17:38:12.676Z,99639.09
2024-01-21T17:40:58.356Z,99646.66
2024-01-21T17:43:43.714Z,99642.66
2024-01-21T17:46:30.249Z,99637.94
2024-01-21T17:49:15.756Z,99645.88
2024-01-21T17:52:04.022Z,99634.78
2024-01-21T17:54:52.100Z,99639.56
2024-01-21T17:57:37.749Z,99643.16
2024-01-21T18:00:23.329Z,99634.41
2024-01-21T18:03:09.036Z,99626.91
2024-01-21T18:05:54.574Z,99635.22
2024-01-21T18:08:40.170Z,99618.19
2024-01-21T18:11:25.510Z,99621.41
2024-01-21T18:14:11.919Z,99619.81
2024-01-21T18:16:57.217Z,99614.31
2024-01-21T18:19:43.085Z,99623.41
2024-01-21T18:22:30.871Z,99626.59
2024-01-21T18:25:16.984Z,99629.00
2024-01-21T18:28:02.348Z,99631.75
2024-01-21T18:30:48.255Z,99632.13
2024-01-21T18:33:34.284Z,99630.94
2024-01-21T18:36:20.724Z,99629.34
2024-01-21T18:39:06.376Z,99634.13
2024-01-21T18:41:51.737Z,99627.78
2024-01-21T18:44:37.712Z,99634.91
2024-01-21T18:47:23.318Z,99634.13
2024-01-21T18:50:08.770Z,99634.50
2024-01-21T18:52:54.140Z,99632.56
2024-01-21T18:55:39.425Z,99643.66
2024-01-21T18:58:27.995Z,99643.66
2024-01-21T19:01:14.615Z,99651.56
2024-01-21T19:04:00.009Z,99657.94
2024-01-21T19:06:45.343Z,99657.53
2024-01-21T19:09:30.857Z,99651.59
2024-01-21T19:12:20.924Z,99654.00
2024-01-21T19:15:06.796Z,99643.69
2024-01-21T19:17:52.767Z,99642.91
2024-01-21T19:20:38.167Z,99645.28
2024-01-21T19:23:23.681Z,99644.09
2024-01-21T19:26:13.733Z,99645.66
2024-01-21T19:29:00.335Z,99633.41
2024-01-21T19:31:46.040Z,99627.09
2024-01-21T19:34:32.045Z,99635.78
2024-01-21T19:37:17.360Z,99625.88
2024-01-21T19:40:02.899Z,99617.19
2024-01-21T19:42:48.700Z,99622.72
2024-01-21T19:45:34.464Z,99612.47
2024-01-21T19:48:20.359Z,99611.25
2024-01-21T19:51:07.595Z,99610.50
2024-01-21T19:53:53.520Z,99610.50
2024-01-21T19:56:39.166Z,99610.50
2024-01-21T19:59:25.096Z,99612.88
2024-01-21T20:02:13.103Z,99611.31
2024-01-21T20:04:58.900Z,99603.00
2024-01-21T20:07:44.295Z,99597.47
2024-01-21T20:10:30.655Z,99602.63
2024-01-21T20:13:15.966Z,99590.75
2024-01-21T20:16:01.494Z,99578.88
2024-01-21T20:18:47.201Z,99586.81
2024-01-21T20:21:33.023Z,99574.91
2024-01-21T20:24:20.422Z,99580.50
2024-01-21T20:27:05.936Z,99580.50
2024-01-21T20:29:51.222Z,99565.44
2024-01-21T20:32:38.132Z,99576.94
2024-01-21T20:35:23.873Z,99557.53
2024-01-21T20:38:09.239Z,99561.50
2024-01-21T20:40:56.249Z,99557.53
2024-01-21T20:43:43.307Z,99550.06
2024-01-21T20:46:28.606Z,99552.81
2024-01-21T20:49:14.132Z,99546.50
2024-01-21T20:51:59.394Z,99548.88
2024-01-21T20:54:46.436Z,99527.91
2024-01-21T20:57:32.720Z,99523.19
2024-01-21T21:00:18.921Z,99519.22
2024-01-21T21:03:05.432Z,99518.81
2024-01-21T21:05:51.711Z,99519.59
2024-01-21T21:08:40.967Z,99525.13
2024-01-21T21:11:27.044Z,99516.81
2024-01-21T21:14:12.881Z,99513.28
2024-01-21T21:16:58.325Z,99518.03
2024-01-21T21:19:43.934Z,99509.72
2024-01-21T21:22:29.918Z,99506.16
2024-01-21T21:25:15.933Z,99503.78
2024-01-21T21:28:01.607Z,99491.94
2024-01-21T21:30:48.122Z,99492.31
2024-01-21T21:33:34.277Z,99468.97
2024-01-21T21:36:21.015Z,99468.97
2024-01-21T21:39:06.432Z,99465.03
2024-01-21T21:41:52.096Z,99468.16
2024-01-21T21:44:37.286Z,99464.19
2024-01-21T21:47:22.673Z,99469.75
2024-01-21T21:50:08.709Z,99454.28
2024-01-21T21:52:54.631Z,99446.81
2024-01-21T21:55:41.248Z,99442.81
2024-01-21T21:58:26.988Z,99435.72
2024-01-21T22:01:12.868Z,99434.94
2024-01-21T22:03:59.410Z,99432.19
2024-01-21T22:06:45.414Z,99415.19
2024-01-21T22:09:31.202Z,99424.25
2024-01-21T22:12:17.682Z,99415.97
2024-01-21T22:15:03.123Z,99413.59
2024-01-21T22:17:48.921Z,99403.28
2024-01-21T22:20:34.416Z,99410.03
2024-01-21T22:23:19.635Z,99402.94
2024-01-21T22:26:05.164Z,99398.56
2024-01-21T22:28:50.588Z,99388.69
2024-01-21T22:31:36.419Z,99379.19
2024-01-21T22:34:22.195Z,99377.19
2024-01-21T22:37:07.746Z,99358.63
2024-01-21T22:39:53.194Z,99347.16
2024-01-21T22:42:38.635Z,99343.19
2024-01-21T22:45:24.423Z,99330.56
2024-01-21T22:48:10.040Z,99312.72
2024-01-21T22:50:55.638Z,99317.09
2024-01-21T22:53:41.615Z,99318.25
2024-01-21T22:56:27.088Z,99317.09
2024-01-21T22:59:12.890Z,99308.78
2024-01-21T23:01:58.444Z,99307.19
2024-01-21T23:04:45.445Z,99306.78
2024-01-21T23:07:33.202Z,99303.25
2024-01-21T23:10:18.614Z,99309.56
2024-01-21T23:13:05.347Z,99306.00
2024-01-21T23:15:50.880Z,99303.25
2024-01-21T23:18:36.386Z,99298.09
2024-01-21T23:21:21.772Z,99291.78
2024-01-21T23:24:07.390Z,99290.97
2024-01-21T23:26:52.900Z,99286.25
2024-01-21T23:29:40.396Z,99281.88
2024-01-21T23:32:26.288Z,99281.88
2024-01-21T23:35:12.329Z,99282.66
2024-01-21T23:37:57.960Z,99284.25
2024-01-21T23:40:43.384Z,99292.97
2024-01-21T23:43:28.763Z,99282.28
2024-01-21T23:46:14.061Z,99274.41
2024-01-21T23:48:59.782Z,99262.91
2024-01-21T23:51:46.319Z,99255.41
2024-01-21T23:54:31.880Z,99252.22
2024-01-21T23:57:19.306Z,99249.03
